createdAt,value
2023-02-17T00:00:56.244Z,8.68
2023-02-17T00:03:25.081Z,8.68
2023-02-17T00:05:53.735Z,8.70
2023-02-17T00:08:23.173Z,8.71
2023-02-17T00:10:58.592Z,8.71
2023-02-17T00:13:26.702Z,8.73
2023-02-17T00:15:55.186Z,8.73
2023-02-17T00:18:23.530Z,8.76
2023-02-17T00:20:51.819Z,8.77
2023-02-17T00:23:19.885Z,8.77
2023-02-17T00:25:49.368Z,8.78
2023-02-17T00:28:17.473Z,8.78
2023-02-17T00:30:45.534Z,8.78
2023-02-17T00:33:13.592Z,8.79
2023-02-17T00:35:42.629Z,8.81
2023-02-17T00:38:10.752Z,8.82
2023-02-17T00:40:38.966Z,8.84
2023-02-17T00:43:08.644Z,8.86
2023-02-17T00:45:36.730Z,8.84
2023-02-17T00:48:04.988Z,8.83
2023-02-17T00:50:33.198Z,8.84
2023-02-17T00:53:01.255Z,8.83
2023-02-17T00:55:29.363Z,8.83
2023-02-17T00:57:57.495Z,8.84
2023-02-17T01:00:27.050Z,8.87
2023-02-17T01:02:55.099Z,8.87
2023-02-17T01:05:23.179Z,8.88
2023-02-17T01:07:51.301Z,8.89
2023-02-17T01:10:19.762Z,8.90
2023-02-17T01:12:48.013Z,8.92
2023-02-17T01:15:16.223Z,8.92
2023-02-17T01:17:45.646Z,8.95
2023-02-17T01:20:13.973Z,8.96
2023-02-17T01:22:42.052Z,8.98
2023-02-17T01:25:10.411Z,9.00
2023-02-17T01:27:38.640Z,9.01
2023-02-17T01:30:08.018Z,9.03
2023-02-17T01:32:37.691Z,9.06
2023-02-17T01:35:07.894Z,9.08
2023-02-17T01:37:36.112Z,9.08
2023-02-17T01:40:05.082Z,9.10
2023-02-17T01:42:33.121Z,9.11
2023-02-17T01:45:35.443Z,9.11
2023-02-17T01:48:07.354Z,9.14
2023-02-17T01:50:39.160Z,9.17
2023-02-17T01:53:08.720Z,9.19
2023-02-17T01:55:38.711Z,9.19
2023-02-17T01:58:08.583Z,9.18
2023-02-17T02:00:38.044Z,9.17
2023-02-17T02:03:07.854Z,9.18
2023-02-17T02:05:38.591Z,9.18
2023-02-17T02:08:06.880Z,9.19
2023-02-17T02:10:35.191Z,9.21
2023-02-17T02:13:03.998Z,9.22
2023-02-17T02:15:36.161Z,9.23
2023-02-17T02:18:22.112Z,9.23
2023-02-17T02:21:30.562Z,9.26
2023-02-17T02:24:11.751Z,9.28
2023-02-17T02:27:09.463Z,9.31
2023-02-17T02:30:02.359Z,9.34
2023-02-17T02:32:44.888Z,9.36
2023-02-17T02:35:17.193Z,9.35
2023-02-17T02:37:48.362Z,9.34
2023-02-17T02:40:17.998Z,9.34
2023-02-17T02:42:47.157Z,9.35
2023-02-17T02:45:15.244Z,9.36
2023-02-17T02:47:48.070Z,9.38
2023-02-17T02:50:18.453Z,9.37
2023-02-17T02:52:58.204Z,9.38
2023-02-17T02:55:35.871Z,9.40
2023-02-17T02:58:08.184Z,9.43
2023-02-17T03:00:41.918Z,9.46
2023-02-17T03:03:16.709Z,9.47
2023-02-17T03:05:53.556Z,9.48
2023-02-17T03:08:27.394Z,9.51
2023-02-17T03:10:56.030Z,9.52
2023-02-17T03:13:24.136Z,9.54
2023-02-17T03:15:52.282Z,9.55
2023-02-17T03:18:21.812Z,9.59
2023-02-17T03:20:52.471Z,9.61
2023-02-17T03:23:21.939Z,9.64
2023-02-17T03:25:50.681Z,9.64
2023-02-17T03:28:19.170Z,9.63
2023-02-17T03:30:47.359Z,9.64
2023-02-17T03:33:15.444Z,9.65
2023-02-17T03:35:44.855Z,9.66
2023-02-17T03:38:12.896Z,9.67
2023-02-17T03:40:40.971Z,9.69
2023-02-17T03:43:09.030Z,9.70
2023-02-17T03:45:37.343Z,9.70
2023-02-17T03:48:05.769Z,9.71
2023-02-17T03:50:33.936Z,9.72
2023-02-17T03:53:05.059Z,9.74
2023-02-17T03:55:33.131Z,9.76
2023-02-17T03:58:01.193Z,9.77
2023-02-17T04:00:29.244Z,9.80
2023-02-17T04:02:58.002Z,9.81
2023-02-17T04:05:26.094Z,9.82
2023-02-17T04:07:54.182Z,9.84
2023-02-17T04:10:23.761Z,9.87
2023-02-17T04:12:51.831Z,9.86
2023-02-17T04:15:20.068Z,9.87
2023-02-17T04:17:48.154Z,9.86
2023-02-17T04:20:16.255Z,9.86
2023-02-17T04:22:46.237Z,9.87
2023-02-17T04:25:14.381Z,9.88
2023-02-17T04:27:43.835Z,9.87
2023-02-17T04:30:13.180Z,9.87
2023-02-17T04:32:41.288Z,9.86
2023-02-17T04:35:09.639Z,9.87
2023-02-17T04:37:37.799Z,9.86
2023-02-17T04:40:10.394Z,9.86
2023-02-17T04:42:38.713Z,9.84
2023-02-17T04:45:09.494Z,9.85
2023-02-17T04:47:37.621Z,9.86
2023-02-17T04:50:07.069Z,9.88
2023-02-17T04:52:35.536Z,9.90
2023-02-17T04:55:03.693Z,9.91
2023-02-17T04:57:31.977Z,9.92
2023-02-17T05:00:00.457Z,9.93
2023-02-17T05:02:30.547Z,9.95
2023-02-17T05:04:58.728Z,9.97
2023-02-17T05:07:26.886Z,9.97
2023-02-17T05:09:55.137Z,9.98
2023-02-17T05:12:23.392Z,9.98
2023-02-17T05:14:51.537Z,9.97
2023-02-17T05:17:19.640Z,9.97
2023-02-17T05:19:49.081Z,9.95
2023-02-17T05:22:17.164Z,9.95
2023-02-17T05:24:45.229Z,9.96
2023-02-17T05:27:13.295Z,9.97
2023-02-17T05:29:41.383Z,9.97
2023-02-17T05:32:09.516Z,9.98
2023-02-17T05:34:37.859Z,9.99
2023-02-17T05:37:07.292Z,10.00
2023-02-17T05:39:35.370Z,10.00
2023-02-17T05:42:03.519Z,10.00
2023-02-17T05:44:32.079Z,10.00
2023-02-17T05:47:00.158Z,9.98
2023-02-17T05:49:28.567Z,9.99
2023-02-17T05:51:56.695Z,10.01
2023-02-17T05:54:26.118Z,10.00
2023-02-17T05:56:54.194Z,10.01
2023-02-17T05:59:22.342Z,10.02
2023-02-17T06:01:50.393Z,10.03
2023-02-17T06:04:18.480Z,10.03
2023-02-17T06:06:46.694Z,10.04
2023-02-17T06:09:15.552Z,10.03
2023-02-17T06:11:45.073Z,10.07
2023-02-17T06:14:13.179Z,10.07
2023-02-17T06:16:41.277Z,10.07
2023-02-17T06:19:09.330Z,10.09
2023-02-17T06:21:37.612Z,10.10
2023-02-17T06:24:06.453Z,10.11
2023-02-17T06:26:34.540Z,10.09
2023-02-17T06:29:04.024Z,10.09
2023-02-17T06:31:32.145Z,10.10
2023-02-17T06:34:00.254Z,10.09
2023-02-17T06:36:28.409Z,10.09
2023-02-17T06:38:56.816Z,10.09
2023-02-17T06:41:24.896Z,10.11
2023-02-17T06:43:52.940Z,10.12
2023-02-17T06:46:22.420Z,10.12
2023-02-17T06:48:50.472Z,10.14
2023-02-17T06:51:18.623Z,10.16
2023-02-17T06:53:46.704Z,10.15
2023-02-17T06:56:14.783Z,10.15
2023-02-17T06:58:42.841Z,10.17
2023-02-17T07:01:17.122Z,10.17
2023-02-17T07:03:46.678Z,10.15
2023-02-17T07:06:14.818Z,10.16
2023-02-17T07:08:42.972Z,10.18
2023-02-17T07:11:13.392Z,10.20
2023-02-17T07:13:41.797Z,10.20
2023-02-17T07:16:10.699Z,10.21
2023-02-17T07:18:38.974Z,10.20
2023-02-17T07:21:09.876Z,10.21
2023-02-17T07:23:38.316Z,10.19
2023-02-17T07:26:08.427Z,10.20
2023-02-17T07:28:37.161Z,10.19
2023-02-17T07:31:09.095Z,10.19
2023-02-17T07:33:37.702Z,10.21
2023-02-17T07:36:09.559Z,10.19
2023-02-17T07:38:38.021Z,10.19
2023-02-17T07:41:07.279Z,10.17
2023-02-17T07:43:35.750Z,10.17
2023-02-17T07:46:04.122Z,10.17
2023-02-17T07:48:32.481Z,10.15
2023-02-17T07:51:06.512Z,10.15
2023-02-17T07:53:36.594Z,10.19
2023-02-17T07:56:05.469Z,10.21
2023-02-17T07:58:34.232Z,10.20
2023-02-17T08:01:06.946Z,10.21
2023-02-17T08:03:35.462Z,10.20
2023-02-17T08:06:04.525Z,10.20
2023-02-17T08:08:50.107Z,10.18
2023-02-17T08:11:37.309Z,10.19
2023-02-17T08:14:05.549Z,10.18
2023-02-17T08:16:33.621Z,10.19
2023-02-17T08:19:01.741Z,10.19
2023-02-17T08:21:29.895Z,10.18
2023-02-17T08:23:58.061Z,10.17
2023-02-17T08:26:27.711Z,10.16
2023-02-17T08:28:56.484Z,10.17
2023-02-17T08:31:29.818Z,10.18
2023-02-17T08:33:58.405Z,10.17
2023-02-17T08:36:26.584Z,10.16
2023-02-17T08:38:55.081Z,10.16
2023-02-17T08:41:24.767Z,10.16
2023-02-17T08:43:54.243Z,10.15
2023-02-17T08:46:23.029Z,10.14
2023-02-17T08:48:51.757Z,10.14
2023-02-17T08:51:23.597Z,10.13
2023-02-17T08:53:52.341Z,10.13
2023-02-17T08:56:20.431Z,10.13
2023-02-17T08:58:48.983Z,10.13
2023-02-17T09:01:23.115Z,10.17
2023-02-17T09:03:52.359Z,10.17
2023-02-17T09:06:21.385Z,10.20
2023-02-17T09:08:50.256Z,10.23
2023-02-17T09:11:19.870Z,10.25
2023-02-17T09:13:48.269Z,10.27
2023-02-17T09:16:19.017Z,10.29
2023-02-17T09:18:47.245Z,10.31
2023-02-17T09:21:15.564Z,10.35
2023-02-17T09:23:43.711Z,10.35
2023-02-17T09:26:14.037Z,10.37
2023-02-17T09:28:42.856Z,10.34
2023-02-17T09:31:12.597Z,10.30
2023-02-17T09:33:42.356Z,10.27
2023-02-17T09:36:11.889Z,10.26
2023-02-17T09:38:41.792Z,10.26
2023-02-17T09:41:16.930Z,10.26
2023-02-17T09:43:45.621Z,10.29
2023-02-17T09:46:19.991Z,10.28
2023-02-17T09:48:51.209Z,10.31
2023-02-17T09:51:25.759Z,10.34
2023-02-17T09:54:00.736Z,10.37
2023-02-17T09:56:34.366Z,10.39
2023-02-17T09:59:05.557Z,10.40
2023-02-17T10:01:34.756Z,10.40
2023-02-17T10:04:08.256Z,10.39
2023-02-17T10:06:39.848Z,10.37
2023-02-17T10:09:13.356Z,10.38
2023-02-17T10:11:45.588Z,10.38
2023-02-17T10:14:18.689Z,10.39
2023-02-17T10:16:50.357Z,10.40
2023-02-17T10:19:24.156Z,10.42
2023-02-17T10:21:58.352Z,10.44
2023-02-17T10:24:26.648Z,10.49
2023-02-17T10:27:06.618Z,10.49
2023-02-17T10:29:43.119Z,10.46
2023-02-17T10:32:22.724Z,10.42
2023-02-17T10:35:04.427Z,10.42
2023-02-17T10:37:40.173Z,10.42
2023-02-17T10:40:13.659Z,10.43
2023-02-17T10:42:41.741Z,10.44
2023-02-17T10:45:14.256Z,10.48
2023-02-17T10:47:42.485Z,10.51
2023-02-17T10:50:20.127Z,10.52
2023-02-17T10:52:48.800Z,10.56
2023-02-17T10:55:23.817Z,10.56
2023-02-17T10:57:55.110Z,10.58
2023-02-17T11:00:24.175Z,10.56
2023-02-17T11:02:52.663Z,10.57
2023-02-17T11:05:27.469Z,10.59
2023-02-17T11:08:01.856Z,10.60
2023-02-17T11:10:33.563Z,10.59
2023-02-17T11:13:03.635Z,10.61
2023-02-17T11:15:35.520Z,10.66
2023-02-17T11:18:11.649Z,10.70
2023-02-17T11:20:41.278Z,10.72
2023-02-17T11:23:24.025Z,10.73
2023-02-17T11:26:01.653Z,10.74
2023-02-17T11:28:29.762Z,10.74
2023-02-17T11:31:00.220Z,10.76
2023-02-17T11:33:33.115Z,10.76
2023-02-17T11:36:03.264Z,10.78
2023-02-17T11:38:42.404Z,10.79
2023-02-17T11:41:11.154Z,10.77
2023-02-17T11:43:40.013Z,10.77
2023-02-17T11:46:24.710Z,10.75
2023-02-17T11:49:22.644Z,10.73
2023-02-17T11:52:01.138Z,10.71
2023-02-17T11:54:33.237Z,10.68
2023-02-17T11:57:13.992Z,10.70
2023-02-17T11:59:51.660Z,10.66
2023-02-17T12:02:26.830Z,10.67
2023-02-17T12:05:06.442Z,10.66
2023-02-17T12:07:47.673Z,10.66
2023-02-17T12:10:23.543Z,10.67
2023-02-17T12:13:04.281Z,10.69
2023-02-17T12:15:43.694Z,10.71
2023-02-17T12:18:23.872Z,10.71
2023-02-17T12:20:58.040Z,10.71
2023-02-17T12:23:42.011Z,10.72
2023-02-17T12:26:16.311Z,10.72
2023-02-17T12:28:56.192Z,10.72
2023-02-17T12:31:39.214Z,10.71
2023-02-17T12:34:12.420Z,10.69
2023-02-17T12:36:41.483Z,10.71
2023-02-17T12:39:16.951Z,10.71
2023-02-17T12:41:48.083Z,10.73
2023-02-17T12:44:19.822Z,10.78
2023-02-17T12:46:53.289Z,10.88
2023-02-17T12:49:24.608Z,10.96
2023-02-17T12:51:55.763Z,10.98
2023-02-17T12:54:31.597Z,10.96
2023-02-17T12:57:18.349Z,10.88
2023-02-17T12:59:49.429Z,10.82
2023-02-17T13:02:18.865Z,10.73
2023-02-17T13:04:50.442Z,10.73
2023-02-17T13:07:35.349Z,10.70
2023-02-17T13:10:06.377Z,10.68
2023-02-17T13:12:41.503Z,10.68
2023-02-17T13:15:33.693Z,10.66
2023-02-17T13:18:03.523Z,10.69
2023-02-17T13:21:00.244Z,10.71
2023-02-17T13:23:37.901Z,10.74
2023-02-17T13:26:29.287Z,10.78
2023-02-17T13:29:23.872Z,10.80
2023-02-17T13:31:54.559Z,10.80
2023-02-17T13:34:32.355Z,10.78
2023-02-17T13:37:03.331Z,10.78
2023-02-17T13:39:34.730Z,10.77
2023-02-17T13:42:04.981Z,10.74
2023-02-17T13:44:34.549Z,10.72
2023-02-17T13:47:04.531Z,10.70
2023-02-17T13:49:35.202Z,10.72
2023-02-17T13:52:11.913Z,10.76
2023-02-17T13:54:42.026Z,10.78
2023-02-17T13:57:25.039Z,10.81
2023-02-17T13:59:53.197Z,10.85
2023-02-17T14:02:35.519Z,10.88
2023-02-17T14:05:16.682Z,10.90
2023-02-17T14:07:47.418Z,10.90
2023-02-17T14:10:21.250Z,10.86
2023-02-17T14:12:50.947Z,10.85
2023-02-17T14:15:19.832Z,10.82
2023-02-17T14:17:47.956Z,10.79
2023-02-17T14:20:31.108Z,10.77
2023-02-17T14:23:07.065Z,10.77
2023-02-17T14:25:37.899Z,10.73
2023-02-17T14:28:18.356Z,10.74
2023-02-17T14:30:46.726Z,10.74
2023-02-17T14:33:22.172Z,10.73
2023-02-17T14:35:55.116Z,10.73
2023-02-17T14:38:25.563Z,10.67
2023-02-17T14:40:55.919Z,10.66
2023-02-17T14:43:25.749Z,10.66
2023-02-17T14:45:54.113Z,10.65
2023-02-17T14:48:22.456Z,10.62
2023-02-17T14:50:50.592Z,10.63
2023-02-17T14:53:24.691Z,10.58
2023-02-17T14:55:56.834Z,10.54
2023-02-17T14:58:27.279Z,10.45
2023-02-17T15:00:55.589Z,10.42
2023-02-17T15:03:24.385Z,10.42
2023-02-17T15:05:53.104Z,10.39
2023-02-17T15:08:22.702Z,10.34
2023-02-17T15:10:50.815Z,10.30
2023-02-17T15:13:20.850Z,10.29
2023-02-17T15:15:50.474Z,10.22
2023-02-17T15:18:20.333Z,10.14
2023-02-17T15:20:50.636Z,10.12
2023-02-17T15:23:20.094Z,10.03
2023-02-17T15:25:49.011Z,10.00
2023-02-17T15:28:18.570Z,9.95
2023-02-17T15:30:50.090Z,9.91
2023-02-17T15:33:20.238Z,9.87
2023-02-17T15:35:49.562Z,9.83
2023-02-17T15:38:17.660Z,9.76
2023-02-17T15:40:45.772Z,9.77
2023-02-17T15:43:19.390Z,9.72
2023-02-17T15:45:47.602Z,9.69
2023-02-17T15:48:22.777Z,9.65
2023-02-17T15:50:52.414Z,9.61
2023-02-17T15:53:20.640Z,9.57
2023-02-17T15:55:49.044Z,9.54
2023-02-17T15:58:19.205Z,9.52
2023-02-17T16:00:48.647Z,9.50
2023-02-17T16:03:16.993Z,9.48
2023-02-17T16:05:45.718Z,9.46
2023-02-17T16:08:15.325Z,9.43
2023-02-17T16:10:45.662Z,9.39
2023-02-17T16:13:16.370Z,9.36
2023-02-17T16:15:45.294Z,9.36
2023-02-17T16:18:20.310Z,9.34
2023-02-17T16:20:48.804Z,9.31
2023-02-17T16:23:18.224Z,9.30
2023-02-17T16:25:47.322Z,9.26
2023-02-17T16:28:17.596Z,9.23
2023-02-17T16:30:46.326Z,9.20
2023-02-17T16:33:14.974Z,9.13
2023-02-17T16:35:43.597Z,9.08
2023-02-17T16:38:15.210Z,9.04
2023-02-17T16:40:48.125Z,8.99
2023-02-17T16:43:17.514Z,8.95
2023-02-17T16:45:53.051Z,8.91
2023-02-17T16:48:24.566Z,8.89
2023-02-17T16:50:52.853Z,8.84
2023-02-17T16:53:22.121Z,8.82
2023-02-17T16:55:52.305Z,8.81
2023-02-17T16:58:22.408Z,8.83
2023-02-17T17:00:53.199Z,8.81
2023-02-17T17:03:22.677Z,8.77
2023-02-17T17:05:51.707Z,8.74
2023-02-17T17:08:21.790Z,8.76
2023-02-17T17:10:51.684Z,8.75
2023-02-17T17:13:19.946Z,8.74
2023-02-17T17:15:48.237Z,8.74
2023-02-17T17:18:20.857Z,8.74
2023-02-17T17:20:49.387Z,8.73
2023-02-17T17:23:18.796Z,8.70
2023-02-17T17:25:48.522Z,8.67
2023-02-17T17:28:20.231Z,8.66
2023-02-17T17:30:48.852Z,8.64
2023-02-17T17:33:17.279Z,8.63
2023-02-17T17:35:45.377Z,8.62
2023-02-17T17:38:15.330Z,8.61
2023-02-17T17:40:49.234Z,8.62
2023-02-17T17:43:20.199Z,8.60
2023-02-17T17:45:48.621Z,8.58
2023-02-17T17:48:17.828Z,8.56
2023-02-17T17:50:46.288Z,8.55
2023-02-17T17:53:14.445Z,8.56
2023-02-17T17:55:42.538Z,8.56
2023-02-17T17:58:10.617Z,8.54
2023-02-17T18:00:40.057Z,8.51
2023-02-17T18:03:08.152Z,8.48
2023-02-17T18:05:36.744Z,8.46
2023-02-17T18:08:05.860Z,8.46
2023-02-17T18:10:34.117Z,8.44
2023-02-17T18:13:02.543Z,8.45
2023-02-17T18:15:30.670Z,8.43
2023-02-17T18:18:00.239Z,8.42
2023-02-17T18:20:28.326Z,8.41
2023-02-17T18:22:56.396Z,8.40
2023-02-17T18:25:25.168Z,8.41
2023-02-17T18:27:53.272Z,8.42
2023-02-17T18:30:23.505Z,8.41
2023-02-17T18:32:52.239Z,8.39
2023-02-17T18:35:22.500Z,8.37
2023-02-17T18:37:50.724Z,8.33
2023-02-17T18:40:20.422Z,8.35
2023-02-17T18:42:48.798Z,8.31
2023-02-17T18:45:18.290Z,8.30
2023-02-17T18:47:46.614Z,8.29
2023-02-17T18:50:15.502Z,8.30
2023-02-17T18:52:45.435Z,8.30
2023-02-17T18:55:14.224Z,8.30
2023-02-17T18:57:42.933Z,8.29
2023-02-17T19:00:13.581Z,8.26
2023-02-17T19:02:41.822Z,8.22
2023-02-17T19:05:10.974Z,8.23
2023-02-17T19:07:39.043Z,8.21
2023-02-17T19:10:10.252Z,8.21
2023-02-17T19:12:38.543Z,8.19
2023-02-17T19:15:07.438Z,8.14
2023-02-17T19:17:35.753Z,8.07
2023-02-17T19:20:04.178Z,8.03
2023-02-17T19:22:32.236Z,7.98
2023-02-17T19:25:00.332Z,7.94
2023-02-17T19:27:29.892Z,7.92
2023-02-17T19:29:58.160Z,7.89
2023-02-17T19:32:26.242Z,7.85
2023-02-17T19:34:54.307Z,7.84
2023-02-17T19:37:22.688Z,7.81
2023-02-17T19:39:50.761Z,7.81
2023-02-17T19:42:18.868Z,7.81
2023-02-17T19:44:48.654Z,7.77
2023-02-17T19:47:16.783Z,7.75
2023-02-17T19:49:44.883Z,7.72
2023-02-17T19:52:13.044Z,7.72
2023-02-17T19:54:41.098Z,7.73
2023-02-17T19:57:09.408Z,7.75
2023-02-17T19:59:37.436Z,7.77
2023-02-17T20:02:07.034Z,7.77
2023-02-17T20:04:35.106Z,7.77
2023-02-17T20:07:03.170Z,7.75
2023-02-17T20:09:32.047Z,7.76
2023-02-17T20:12:00.145Z,7.78
2023-02-17T20:14:28.208Z,7.79
2023-02-17T20:16:56.476Z,7.80
2023-02-17T20:19:25.925Z,7.82
2023-02-17T20:21:54.095Z,7.84
2023-02-17T20:24:22.284Z,7.87
2023-02-17T20:26:53.608Z,7.89
2023-02-17T20:29:21.753Z,7.93
2023-02-17T20:31:49.993Z,7.95
2023-02-17T20:34:29.296Z,7.95
2023-02-17T20:36:57.904Z,7.94
2023-02-17T20:39:26.803Z,7.96
2023-02-17T20:41:55.055Z,7.96
2023-02-17T20:44:26.648Z,7.95
2023-02-17T20:46:56.486Z,7.95
2023-02-17T20:49:25.345Z,7.94
2023-02-17T20:51:55.035Z,7.93
2023-02-17T20:54:24.682Z,7.95
2023-02-17T20:56:53.028Z,7.93
2023-02-17T20:59:21.647Z,7.93
2023-02-17T21:01:49.940Z,7.95
2023-02-17T21:04:18.672Z,7.97
2023-02-17T21:06:47.455Z,7.95
2023-02-17T21:09:18.204Z,7.95
2023-02-17T21:11:47.841Z,7.95
2023-02-17T21:14:16.191Z,7.94
2023-02-17T21:16:44.355Z,7.94
2023-02-17T21:19:12.440Z,7.92
2023-02-17T21:21:40.984Z,7.92
2023-02-17T21:24:09.216Z,7.90
2023-02-17T21:26:38.840Z,7.88
2023-02-17T21:29:06.952Z,7.88
2023-02-17T21:31:37.133Z,7.84
2023-02-17T21:34:05.888Z,7.79
2023-02-17T21:36:34.069Z,7.73
2023-02-17T21:39:03.786Z,7.71
2023-02-17T21:41:32.594Z,7.68
2023-02-17T21:44:19.511Z,7.68
2023-02-17T21:46:47.608Z,7.71
2023-02-17T21:49:15.713Z,7.71
2023-02-17T21:51:43.865Z,7.72
2023-02-17T21:54:12.026Z,7.67
2023-02-17T21:56:40.178Z,7.68
2023-02-17T21:59:09.704Z,7.65
2023-02-17T22:01:38.039Z,7.65
2023-02-17T22:04:06.873Z,7.61
2023-02-17T22:06:36.837Z,7.61
2023-02-17T22:09:06.851Z,7.60
2023-02-17T22:11:36.550Z,7.59
2023-02-17T22:14:06.836Z,7.62
2023-02-17T22:16:37.350Z,7.63
2023-02-17T22:19:06.561Z,7.68
2023-02-17T22:21:35.226Z,7.70
2023-02-17T22:24:03.747Z,7.69
2023-02-17T22:26:31.876Z,7.71
2023-02-17T22:29:00.233Z,7.70
2023-02-17T22:31:30.367Z,7.62
2023-02-17T22:34:01.685Z,7.57
2023-02-17T22:36:31.976Z,7.54
2023-02-17T22:39:00.732Z,7.51
2023-02-17T22:41:29.117Z,7.48
2023-02-17T22:43:57.269Z,7.46
2023-02-17T22:46:27.261Z,7.46
2023-02-17T22:48:56.604Z,7.46
2023-02-17T22:51:27.823Z,7.46
2023-02-17T22:53:56.179Z,7.47
2023-02-17T22:56:24.530Z,7.49
2023-02-17T22:58:56.283Z,7.50
2023-02-17T23:01:25.425Z,7.48
2023-02-17T23:03:55.014Z,7.47
2023-02-17T23:06:25.538Z,7.46
2023-02-17T23:08:55.774Z,7.43
2023-02-17T23:11:45.229Z,7.42
2023-02-17T23:14:14.375Z,7.40
2023-02-17T23:16:42.564Z,7.40
2023-02-17T23:19:12.499Z,7.41
2023-02-17T23:21:44.479Z,7.36
2023-02-17T23:24:15.070Z,7.35
2023-02-17T23:26:43.230Z,7.33
2023-02-17T23:29:11.575Z,7.28
2023-02-17T23:31:39.992Z,7.27
2023-02-17T23:34:08.226Z,7.28
2023-02-17T23:36:39.198Z,7.26
2023-02-17T23:39:07.494Z,7.23
2023-02-17T23:41:38.363Z,7.22
2023-02-17T23:44:08.243Z,7.21
2023-02-17T23:46:36.632Z,7.17
2023-02-17T23:49:04.939Z,7.15
2023-02-17T23:51:33.163Z,7.14
2023-02-17T23:54:01.346Z,7.14
2023-02-17T23:56:34.646Z,7.12
2023-02-17T23:59:04.587Z,7.13
